createdAt,value
2022-10-06T00:00:49.877Z,101202.22
2022-10-06T00:03:16.883Z,101198.78
2022-10-06T00:05:43.806Z,101202.25
2022-10-06T00:08:11.126Z,101199.50
2022-10-06T00:10:37.913Z,101200.44
2022-10-06T00:13:04.516Z,101203.06
2022-10-06T00:15:32.756Z,101196.97
2022-10-06T00:17:59.871Z,101204.97
2022-10-06T00:20:27.114Z,101203.38
2022-10-06T00:25:23.690Z,101198.78
2022-10-06T00:27:52.364Z,101202.31
2022-10-06T00:30:22.717Z,101201.41
2022-10-06T00:32:54.756Z,101197.91
2022-10-06T00:35:21.683Z,101198.75
2022-10-06T00:37:48.839Z,101199.81
2022-10-06T00:40:16.099Z,101198.84
2022-10-06T00:43:01.363Z,101205.91
2022-10-06T00:45:37.766Z,101198.81
2022-10-06T00:48:08.762Z,101197.19
2022-10-06T00:50:36.385Z,101198.09
2022-10-06T00:53:05.111Z,101194.44
2022-10-06T00:55:32.097Z,101191.97
2022-10-06T00:58:00.050Z,101194.41
2022-10-06T01:00:27.199Z,101195.19
2022-10-06T01:03:21.833Z,101201.69
2022-10-06T01:05:51.221Z,101195.59
2022-10-06T01:08:18.776Z,101205.16
2022-10-06T01:10:45.359Z,101202.41
2022-10-06T01:13:13.684Z,101199.63
2022-10-06T01:15:50.321Z,101199.91
2022-10-06T01:18:20.479Z,101201.78
2022-10-06T01:20:53.475Z,101206.31
2022-10-06T01:23:21.135Z,101214.19
2022-10-06T01:25:48.215Z,101204.47
2022-10-06T01:28:15.038Z,101208.94
2022-10-06T01:30:47.173Z,101202.75
2022-10-06T01:33:13.778Z,101204.41
2022-10-06T01:35:40.342Z,101201.84
2022-10-06T01:38:06.907Z,101188.78
2022-10-06T01:40:33.472Z,101200.97
2022-10-06T01:43:00.042Z,101200.94
2022-10-06T01:45:26.660Z,101209.94
2022-10-06T01:47:53.275Z,101214.22
2022-10-06T01:50:19.847Z,101215.84
2022-10-06T01:52:46.431Z,101217.53
2022-10-06T01:55:13.084Z,101212.44
2022-10-06T01:57:41.001Z,101217.88
2022-10-06T02:00:08.712Z,101215.28
2022-10-06T02:02:35.314Z,101223.91
2022-10-06T02:05:02.467Z,101225.56
2022-10-06T02:07:29.037Z,101227.19
2022-10-06T02:09:55.752Z,101221.94
2022-10-06T02:12:22.564Z,101223.81
2022-10-06T02:14:49.193Z,101229.25
2022-10-06T02:17:15.794Z,101237.28
2022-10-06T02:19:42.464Z,101234.66
2022-10-06T02:22:09.011Z,101221.50
2022-10-06T02:24:35.612Z,101227.66
2022-10-06T02:27:02.167Z,101231.16
2022-10-06T02:29:28.746Z,101235.56
2022-10-06T02:31:55.441Z,101226.78
2022-10-06T02:34:22.020Z,101230.22
2022-10-06T02:36:48.595Z,101231.19
2022-10-06T02:39:15.198Z,101236.31
2022-10-06T02:41:41.790Z,101236.41
2022-10-06T02:44:08.458Z,101237.28
2022-10-06T02:46:35.078Z,101238.19
2022-10-06T02:49:01.705Z,101233.03
2022-10-06T02:51:28.291Z,101225.09
2022-10-06T02:53:54.870Z,101230.31
2022-10-06T02:56:24.118Z,101235.53
2022-10-06T02:58:52.044Z,101234.59
2022-10-06T03:01:24.581Z,101232.03
2022-10-06T03:03:51.265Z,101240.81
2022-10-06T03:06:23.511Z,101240.75
2022-10-06T03:08:59.356Z,101236.34
2022-10-06T03:11:34.722Z,101243.41
2022-10-06T03:14:01.786Z,101229.47
2022-10-06T03:16:29.466Z,101228.63
2022-10-06T03:18:56.623Z,101233.00
2022-10-06T03:21:26.235Z,101230.41
2022-10-06T03:23:53.958Z,101238.28
2022-10-06T03:26:22.982Z,101237.41
2022-10-06T03:28:49.632Z,101240.91
2022-10-06T03:31:16.469Z,101240.06
2022-10-06T03:33:43.154Z,101239.22
2022-10-06T03:36:15.872Z,101236.59
2022-10-06T03:38:43.273Z,101236.63
2022-10-06T03:41:09.810Z,101226.97
2022-10-06T03:43:37.626Z,101232.22
2022-10-06T03:46:05.972Z,101228.72
2022-10-06T03:48:36.006Z,101226.97
2022-10-06T03:51:05.865Z,101225.19
2022-10-06T03:53:34.168Z,101224.31
2022-10-06T03:56:10.383Z,101228.63
2022-10-06T03:58:40.161Z,101225.16
2022-10-06T04:01:16.299Z,101229.59
2022-10-06T04:03:43.234Z,101233.13
2022-10-06T04:06:16.075Z,101236.63
2022-10-06T04:08:43.787Z,101235.75
2022-10-06T04:11:16.040Z,101240.97
2022-10-06T04:13:43.950Z,101242.72
2022-10-06T04:16:20.187Z,101238.41
2022-10-06T04:18:50.103Z,101249.81
2022-10-06T04:21:16.696Z,101245.41
2022-10-06T04:23:43.324Z,101238.38
2022-10-06T04:26:18.578Z,101237.53
2022-10-06T04:28:46.084Z,101238.44
2022-10-06T04:31:23.311Z,101242.78
2022-10-06T04:33:55.572Z,101254.16
2022-10-06T04:36:27.932Z,101246.28
2022-10-06T04:39:02.149Z,101251.53
2022-10-06T04:41:31.443Z,101246.25
2022-10-06T04:43:58.723Z,101238.41
2022-10-06T04:46:43.670Z,101235.78
2022-10-06T04:49:16.251Z,101234.06
2022-10-06T04:51:46.854Z,101234.91
2022-10-06T04:54:13.559Z,101239.31
2022-10-06T04:56:40.138Z,101232.28
2022-10-06T04:59:06.711Z,101244.56
2022-10-06T05:01:35.933Z,101245.41
2022-10-06T05:04:04.469Z,101244.56
2022-10-06T05:06:36.382Z,101248.03
2022-10-06T05:09:14.202Z,101246.25
2022-10-06T05:11:40.839Z,101245.41
2022-10-06T05:14:07.453Z,101251.50
2022-10-06T05:16:34.165Z,101252.41
2022-10-06T05:19:00.898Z,101248.03
2022-10-06T05:21:30.222Z,101244.53
2022-10-06T05:23:57.195Z,101245.34
2022-10-06T05:26:27.553Z,101237.53
2022-10-06T05:28:54.376Z,101241.94
2022-10-06T05:31:26.939Z,101243.66
2022-10-06T05:33:54.417Z,101247.19
2022-10-06T05:36:24.040Z,101251.53
2022-10-06T05:38:50.848Z,101258.47
2022-10-06T05:41:20.136Z,101257.59
2022-10-06T05:43:47.951Z,101258.53
2022-10-06T05:46:20.147Z,101262.91
2022-10-06T05:48:48.038Z,101262.91
2022-10-06T05:51:14.734Z,101269.91
2022-10-06T05:53:41.687Z,101275.13
2022-10-06T05:56:10.363Z,101274.25
2022-10-06T05:58:39.257Z,101269.84
2022-10-06T06:01:14.242Z,101275.13
2022-10-06T06:03:43.230Z,101274.22
2022-10-06T06:06:30.666Z,101266.41
2022-10-06T06:09:00.234Z,101274.28
2022-10-06T06:11:28.824Z,101283.88
2022-10-06T06:14:04.264Z,101281.25
2022-10-06T06:16:31.662Z,101289.97
2022-10-06T06:18:59.291Z,101285.59
2022-10-06T06:21:26.354Z,101284.72
2022-10-06T06:23:53.745Z,101284.72
2022-10-06T06:26:21.723Z,101290.75
2022-10-06T06:28:48.388Z,101295.16
2022-10-06T06:31:20.339Z,101296.00
2022-10-06T06:33:49.009Z,101306.56
2022-10-06T06:36:20.013Z,101310.91
2022-10-06T06:38:48.338Z,101308.25
2022-10-06T06:41:20.330Z,101308.28
2022-10-06T06:43:47.895Z,101310.84
2022-10-06T06:46:16.691Z,101305.59
2022-10-06T06:48:44.225Z,101324.88
2022-10-06T06:51:11.507Z,101323.19
2022-10-06T06:53:39.251Z,101318.81
2022-10-06T06:56:07.243Z,101324.03
2022-10-06T06:58:37.611Z,101319.63
2022-10-06T07:01:09.430Z,101318.78
2022-10-06T07:03:56.610Z,101324.00
2022-10-06T07:06:27.782Z,101321.34
2022-10-06T07:08:55.604Z,101327.53
2022-10-06T07:11:24.624Z,101333.63
2022-10-06T07:13:53.340Z,101330.13
2022-10-06T07:16:22.084Z,101331.00
2022-10-06T07:18:48.800Z,101330.06
2022-10-06T07:21:15.379Z,101333.50
2022-10-06T07:23:42.116Z,101331.66
2022-10-06T07:26:08.768Z,101331.72
2022-10-06T07:28:35.385Z,101332.53
2022-10-06T07:31:02.179Z,101339.63
2022-10-06T07:33:28.815Z,101341.41
2022-10-06T07:35:55.382Z,101348.31
2022-10-06T07:38:21.989Z,101354.41
2022-10-06T07:41:18.277Z,101355.38
2022-10-06T07:43:40.734Z,101359.72
2022-10-06T07:46:14.240Z,101357.06
2022-10-06T07:48:40.875Z,101364.84
2022-10-06T07:51:16.651Z,101369.91
2022-10-06T07:53:43.331Z,101363.88
2022-10-06T07:56:09.917Z,101369.06
2022-10-06T07:58:36.606Z,101370.75
2022-10-06T08:01:08.802Z,101369.63
2022-10-06T08:03:37.954Z,101375.81
2022-10-06T08:06:04.662Z,101377.47
2022-10-06T08:08:32.972Z,101368.63
2022-10-06T08:11:01.478Z,101382.13
2022-10-06T08:13:29.163Z,101386.63
2022-10-06T08:15:55.768Z,101381.72
2022-10-06T08:18:44.587Z,101378.59
2022-10-06T08:21:22.035Z,101379.41
2022-10-06T08:23:50.351Z,101377.38
2022-10-06T08:26:19.394Z,101380.66
2022-10-06T08:28:48.665Z,101375.03
2022-10-06T08:31:17.418Z,101375.25
2022-10-06T08:33:45.475Z,101380.66
2022-10-06T08:36:15.127Z,101377.16
2022-10-06T08:38:42.086Z,101371.84
2022-10-06T08:41:27.710Z,101372.38
2022-10-06T08:44:03.288Z,101368.53
2022-10-06T08:46:39.801Z,101369.34
2022-10-06T08:49:15.907Z,101370.03
2022-10-06T08:51:57.674Z,101371.22
2022-10-06T08:54:35.644Z,101378.44
2022-10-06T08:57:30.325Z,101378.19
2022-10-06T08:59:59.106Z,101378.56
2022-10-06T09:02:32.419Z,101379.13
2022-10-06T09:05:03.057Z,101380.34
2022-10-06T09:07:41.131Z,101383.59
2022-10-06T09:10:38.548Z,101378.00
2022-10-06T09:13:21.939Z,101390.38
2022-10-06T09:16:09.013Z,101387.44
2022-10-06T09:19:09.466Z,101389.47
2022-10-06T09:21:50.565Z,101381.22
2022-10-06T09:24:30.347Z,101384.22
2022-10-06T09:26:57.762Z,101384.00
2022-10-06T09:29:25.058Z,101390.91
2022-10-06T09:31:51.688Z,101382.44
2022-10-06T09:34:44.453Z,101380.00
2022-10-06T09:37:12.552Z,101383.22
2022-10-06T09:39:47.531Z,101384.09
2022-10-06T09:42:23.977Z,101380.78
2022-10-06T09:44:50.523Z,101385.28
2022-10-06T09:47:29.184Z,101387.97
2022-10-06T09:50:10.925Z,101387.63
2022-10-06T09:53:03.912Z,101388.81
2022-10-06T09:55:43.650Z,101381.53
2022-10-06T09:58:23.684Z,101391.47
2022-10-06T10:00:59.280Z,101390.75
2022-10-06T10:03:44.572Z,101398.53
2022-10-06T10:06:30.391Z,101399.88
2022-10-06T10:09:20.678Z,101399.19
2022-10-06T10:12:09.419Z,101388.91
2022-10-06T10:14:37.983Z,101395.34
2022-10-06T10:17:16.289Z,101395.56
2022-10-06T10:19:43.402Z,101389.31
2022-10-06T10:22:27.547Z,101384.69
2022-10-06T10:25:15.788Z,101387.09
2022-10-06T10:28:06.960Z,101377.44
2022-10-06T10:30:44.688Z,101380.69
2022-10-06T10:33:25.369Z,101380.28
2022-10-06T10:35:55.312Z,101384.16
2022-10-06T10:38:24.573Z,101381.94
2022-10-06T10:41:09.002Z,101372.50
2022-10-06T10:43:47.529Z,101371.66
2022-10-06T10:46:36.327Z,101368.78
2022-10-06T10:49:13.827Z,101370.47
2022-10-06T10:51:53.874Z,101371.13
2022-10-06T10:54:41.114Z,101371.47
2022-10-06T10:57:16.228Z,101383.41
2022-10-06T10:59:58.830Z,101374.19
2022-10-06T11:02:27.111Z,101368.09
2022-10-06T11:05:07.051Z,101375.91
2022-10-06T11:07:42.704Z,101373.72
2022-10-06T11:10:13.365Z,101365.88
2022-10-06T11:13:17.303Z,101367.97
2022-10-06T11:16:05.265Z,101377.38
2022-10-06T11:19:02.836Z,101368.53
2022-10-06T11:21:42.470Z,101373.75
2022-10-06T11:24:16.767Z,101366.53
2022-10-06T11:27:16.928Z,101365.50
2022-10-06T11:30:13.082Z,101363.16
2022-10-06T11:32:47.545Z,101366.31
2022-10-06T11:35:18.625Z,101361.69
2022-10-06T11:38:22.248Z,101353.38
2022-10-06T11:41:28.841Z,101358.13
2022-10-06T11:44:25.838Z,101354.19
2022-10-06T11:47:07.243Z,101355.06
2022-10-06T11:49:52.688Z,101352.28
2022-10-06T11:52:19.238Z,101354.03
2022-10-06T11:54:52.754Z,101352.94
2022-10-06T11:57:30.365Z,101355.63
2022-10-06T12:00:17.627Z,101342.09
2022-10-06T12:02:47.465Z,101349.53
2022-10-06T12:05:45.902Z,101346.44
2022-10-06T12:08:00.646Z,101346.06
2022-10-06T12:10:30.037Z,101339.44
2022-10-06T12:13:53.266Z,101346.00
2022-10-06T12:19:24.803Z,101341.97
2022-10-06T12:22:00.412Z,101337.25
2022-10-06T12:24:29.950Z,101340.84
2022-10-06T12:27:17.485Z,101338.13
2022-10-06T12:29:49.034Z,101332.47
2022-10-06T12:32:34.023Z,101339.44
2022-10-06T12:35:00.892Z,101337.78
2022-10-06T12:37:30.799Z,101332.53
2022-10-06T12:40:34.973Z,101342.28
2022-10-06T12:43:13.804Z,101331.06
2022-10-06T12:45:47.777Z,101342.00
2022-10-06T12:48:19.948Z,101326.84
2022-10-06T12:50:53.034Z,101322.41
2022-10-06T12:53:37.098Z,101326.13
2022-10-06T12:56:06.184Z,101333.28
2022-10-06T12:58:33.872Z,101323.56
2022-10-06T13:01:07.444Z,101320.47
2022-10-06T13:03:35.119Z,101314.88
2022-10-06T13:06:04.642Z,101309.47
2022-10-06T13:08:33.792Z,101312.47
2022-10-06T13:11:19.878Z,101321.63
2022-10-06T13:13:49.552Z,101320.06
2022-10-06T13:16:18.560Z,101316.97
2022-10-06T13:18:45.282Z,101311.09
2022-10-06T13:21:14.203Z,101306.50
2022-10-06T13:23:40.936Z,101302.56
2022-10-06T13:26:21.639Z,101305.06
2022-10-06T13:28:50.824Z,101303.91
2022-10-06T13:31:23.205Z,101311.16
2022-10-06T13:34:03.111Z,101306.41
2022-10-06T13:36:34.277Z,101300.56
2022-10-06T13:39:04.171Z,101293.91
2022-10-06T13:41:52.414Z,101303.47
2022-10-06T13:44:18.999Z,101301.81
2022-10-06T13:46:49.312Z,101298.16
2022-10-06T13:49:30.101Z,101294.84
2022-10-06T13:52:00.821Z,101298.84
2022-10-06T13:54:37.894Z,101292.63
2022-10-06T13:57:05.039Z,101291.44
2022-10-06T13:59:36.350Z,101291.97
2022-10-06T14:02:23.963Z,101293.84
2022-10-06T14:05:38.635Z,101287.16
2022-10-06T14:08:10.890Z,101286.88
2022-10-06T14:10:40.587Z,101289.28
2022-10-06T14:13:20.114Z,101293.06
2022-10-06T14:16:07.922Z,101298.25
2022-10-06T14:18:43.164Z,101301.00
2022-10-06T14:21:25.017Z,101299.97
2022-10-06T14:23:52.940Z,101306.56
2022-10-06T14:26:32.970Z,101303.44
2022-10-06T14:28:59.587Z,101299.25
2022-10-06T14:31:28.242Z,101302.19
2022-10-06T14:33:56.207Z,101309.53
2022-10-06T14:36:25.557Z,101312.88
2022-10-06T14:38:52.154Z,101306.19
2022-10-06T14:41:20.179Z,101314.59
2022-10-06T14:43:47.690Z,101310.66
2022-10-06T14:46:14.338Z,101316.38
2022-10-06T14:48:40.975Z,101308.06
2022-10-06T14:51:07.569Z,101315.19
2022-10-06T14:53:34.244Z,101310.38
2022-10-06T14:56:08.467Z,101316.19
2022-10-06T14:58:39.067Z,101316.72
2022-10-06T15:01:10.153Z,101312.88
2022-10-06T15:03:36.837Z,101320.09
2022-10-06T15:06:05.966Z,101320.94
2022-10-06T15:08:32.523Z,101320.94
2022-10-06T15:10:59.084Z,101316.38
2022-10-06T15:13:25.668Z,101317.38
2022-10-06T15:15:57.864Z,101324.56
2022-10-06T15:18:24.511Z,101325.44
2022-10-06T15:20:51.073Z,101326.13
2022-10-06T15:23:17.649Z,101332.59
2022-10-06T15:25:51.923Z,101324.19
2022-10-06T15:28:21.319Z,101330.91
2022-10-06T15:30:50.346Z,101325.31
2022-10-06T15:33:17.003Z,101332.66
2022-10-06T15:35:57.163Z,101338.59
2022-10-06T15:38:23.747Z,101338.63
2022-10-06T15:40:50.370Z,101338.44
2022-10-06T15:43:16.929Z,101339.44
2022-10-06T15:45:52.943Z,101338.88
2022-10-06T15:48:19.504Z,101346.78
2022-10-06T15:50:46.071Z,101343.06
2022-10-06T15:53:12.722Z,101345.38
2022-10-06T15:55:39.333Z,101345.16
2022-10-06T15:58:05.918Z,101351.72
2022-10-06T16:00:32.556Z,101351.72
2022-10-06T16:02:59.157Z,101352.13
2022-10-06T16:05:25.767Z,101358.06
2022-10-06T16:07:52.347Z,101357.63
2022-10-06T16:10:18.923Z,101363.78
2022-10-06T16:12:45.534Z,101371.69
2022-10-06T16:15:12.167Z,101376.53
2022-10-06T16:17:38.822Z,101382.88
2022-10-06T16:20:05.797Z,101379.19
2022-10-06T16:22:32.453Z,101379.69
2022-10-06T16:24:59.010Z,101385.66
2022-10-06T16:27:28.008Z,101380.84
2022-10-06T16:29:56.676Z,101384.88
2022-10-06T16:32:23.281Z,101377.06
2022-10-06T16:34:49.860Z,101380.72
2022-10-06T16:37:16.476Z,101386.34
2022-10-06T16:39:43.046Z,101386.13
2022-10-06T16:42:09.641Z,101388.69
2022-10-06T16:44:36.231Z,101383.63
2022-10-06T16:47:02.898Z,101395.56
2022-10-06T16:49:29.587Z,101396.66
2022-10-06T16:51:56.159Z,101394.72
2022-10-06T16:54:22.915Z,101399.63
2022-10-06T16:56:50.113Z,101402.63
2022-10-06T16:59:21.534Z,101411.69
2022-10-06T17:01:49.320Z,101409.25
2022-10-06T17:04:25.663Z,101411.69
2022-10-06T17:06:56.807Z,101408.69
2022-10-06T17:09:25.522Z,101412.03
2022-10-06T17:11:57.580Z,101408.72
2022-10-06T17:14:25.173Z,101409.53
2022-10-06T17:16:53.610Z,101419.81
2022-10-06T17:19:22.736Z,101418.28
2022-10-06T17:21:54.059Z,101417.84
2022-10-06T17:24:24.590Z,101422.00
2022-10-06T17:26:51.187Z,101424.19
2022-10-06T17:29:21.819Z,101420.38
2022-10-06T17:31:51.322Z,101425.81
2022-10-06T17:34:21.530Z,101417.75
2022-10-06T17:36:51.822Z,101414.81
2022-10-06T17:39:23.081Z,101409.75
2022-10-06T17:41:51.665Z,101411.56
2022-10-06T17:44:20.671Z,101418.78
2022-10-06T17:46:47.264Z,101421.06
2022-10-06T17:49:16.030Z,101418.91
2022-10-06T17:51:44.702Z,101422.88
2022-10-06T17:54:13.213Z,101415.56
2022-10-06T17:56:39.920Z,101422.34
2022-10-06T17:59:11.701Z,101421.03
2022-10-06T18:01:38.374Z,101418.25
2022-10-06T18:04:06.557Z,101411.19
2022-10-06T18:06:35.372Z,101412.41
2022-10-06T18:09:03.267Z,101409.19
2022-10-06T18:11:30.774Z,101407.34
2022-10-06T18:13:58.223Z,101407.41
2022-10-06T18:16:27.292Z,101417.16
2022-10-06T18:18:55.417Z,101422.38
2022-10-06T18:21:24.270Z,101421.63
2022-10-06T18:23:50.965Z,101427.88
2022-10-06T18:26:19.515Z,101427.16
2022-10-06T18:29:16.795Z,101430.88
2022-10-06T18:31:44.151Z,101424.63
2022-10-06T18:36:58.830Z,101422.06
2022-10-06T18:39:25.428Z,101429.16
2022-10-06T18:41:52.495Z,101428.22
2022-10-06T18:44:19.147Z,101440.06
2022-10-06T18:46:45.729Z,101444.63
2022-10-06T18:49:15.003Z,101440.50
2022-10-06T18:51:45.642Z,101440.38
2022-10-06T18:54:23.581Z,101444.22
2022-10-06T18:56:50.511Z,101451.16
2022-10-06T18:59:20.906Z,101458.28
2022-10-06T19:01:48.730Z,101454.94
2022-10-06T19:04:18.059Z,101445.88
2022-10-06T19:06:47.480Z,101455.44
2022-10-06T19:09:15.480Z,101453.72
2022-10-06T19:11:42.116Z,101457.25
2022-10-06T19:14:09.068Z,101454.38
2022-10-06T19:16:36.423Z,101453.75
2022-10-06T19:19:05.272Z,101449.06
2022-10-06T19:21:31.872Z,101438.13
2022-10-06T19:23:58.473Z,101436.66
2022-10-06T19:26:25.112Z,101438.84
2022-10-06T19:28:51.668Z,101435.44
2022-10-06T19:31:18.241Z,101442.97
2022-10-06T19:33:44.822Z,101440.03
2022-10-06T19:36:11.394Z,101441.97
2022-10-06T19:38:38.348Z,101439.53
2022-10-06T19:41:05.190Z,101445.56
2022-10-06T19:43:31.876Z,101447.41
2022-10-06T19:45:59.662Z,101457.13
2022-10-06T19:48:26.242Z,101456.28
2022-10-06T19:50:52.826Z,101457.13
2022-10-06T19:53:19.423Z,101464.94
2022-10-06T19:55:46.071Z,101467.81
2022-10-06T19:58:12.665Z,101471.41
2022-10-06T20:00:39.294Z,101473.31
2022-10-06T20:03:05.969Z,101469.03
2022-10-06T20:05:35.151Z,101464.84
2022-10-06T20:08:01.774Z,101468.41
2022-10-06T20:10:28.347Z,101474.56
2022-10-06T20:12:54.951Z,101477.06
2022-10-06T20:15:21.569Z,101481.75
2022-10-06T20:17:48.304Z,101480.53
2022-10-06T20:20:14.936Z,101476.16
2022-10-06T20:22:41.500Z,101474.63
2022-10-06T20:25:08.253Z,101480.53
2022-10-06T20:27:34.874Z,101473.88
2022-10-06T20:30:01.515Z,101484.75
2022-10-06T20:32:28.111Z,101479.78
2022-10-06T20:34:54.667Z,101485.25
2022-10-06T20:37:21.241Z,101481.06
2022-10-06T20:39:47.831Z,101479.28
2022-10-06T20:42:15.475Z,101487.13
2022-10-06T20:44:43.673Z,101483.81
2022-10-06T20:47:11.865Z,101489.09
2022-10-06T20:49:38.540Z,101486.38
2022-10-06T20:52:05.959Z,101483.00
2022-10-06T20:54:32.865Z,101484.94
2022-10-06T20:56:59.435Z,101493.53
2022-10-06T20:59:26.023Z,101495.50
2022-10-06T21:01:52.707Z,101498.16
2022-10-06T21:04:20.490Z,101489.50
2022-10-06T21:06:47.861Z,101487.16
2022-10-06T21:09:16.514Z,101493.41
2022-10-06T21:11:44.008Z,101489.84
2022-10-06T21:14:11.559Z,101495.13
2022-10-06T21:16:41.525Z,101502.25
2022-10-06T21:19:13.975Z,101500.56
2022-10-06T21:21:42.170Z,101501.28
2022-10-06T21:24:09.199Z,101504.03
2022-10-06T21:26:36.912Z,101498.97
2022-10-06T21:29:03.521Z,101493.69
2022-10-06T21:31:30.182Z,101494.97
2022-10-06T21:33:56.824Z,101490.75
2022-10-06T21:36:26.000Z,101493.19
2022-10-06T21:38:55.139Z,101489.50
2022-10-06T21:41:26.814Z,101486.75
2022-10-06T21:44:10.837Z,101484.09
2022-10-06T21:46:49.071Z,101484.94
2022-10-06T21:49:21.490Z,101481.44
2022-10-06T21:51:50.628Z,101488.34
2022-10-06T21:54:18.453Z,101486.78
2022-10-06T21:56:45.577Z,101480.72
2022-10-06T21:59:12.602Z,101483.34
2022-10-06T22:01:41.829Z,101486.03
2022-10-06T22:04:09.166Z,101486.78
2022-10-06T22:06:36.906Z,101488.50
2022-10-06T22:09:06.226Z,101492.91
2022-10-06T22:11:39.055Z,101490.25
2022-10-06T22:14:10.482Z,101485.91
2022-10-06T22:16:38.269Z,101493.84
2022-10-06T22:19:07.323Z,101489.50
2022-10-06T22:21:42.620Z,101492.41
2022-10-06T22:24:12.692Z,101494.38
2022-10-06T22:26:41.045Z,101490.88
2022-10-06T22:29:10.553Z,101494.28
2022-10-06T22:31:39.355Z,101493.97
2022-10-06T22:34:06.541Z,101491.03
2022-10-06T22:36:33.777Z,101499.84
2022-10-06T22:39:01.052Z,101491.03
2022-10-06T22:41:28.256Z,101486.50
2022-10-06T22:43:56.657Z,101487.31
2022-10-06T22:46:28.510Z,101480.13
2022-10-06T22:48:55.366Z,101478.50
2022-10-06T22:51:22.237Z,101473.31
2022-10-06T22:53:57.580Z,101477.75
2022-10-06T22:56:26.117Z,101479.66
2022-10-06T22:58:52.704Z,101472.81
2022-10-06T23:01:19.689Z,101474.66
2022-10-06T23:03:47.298Z,101470.16
2022-10-06T23:06:16.309Z,101476.13
2022-10-06T23:08:43.282Z,101475.31
2022-10-06T23:11:15.681Z,101472.72
2022-10-06T23:13:42.376Z,101472.81
2022-10-06T23:16:11.795Z,101467.00
2022-10-06T23:18:39.961Z,101462.50
2022-10-06T23:21:11.106Z,101470.44
2022-10-06T23:23:37.668Z,101466.06
2022-10-06T23:26:10.027Z,101462.53
2022-10-06T23:28:37.703Z,101460.06
2022-10-06T23:31:06.371Z,101460.03
2022-10-06T23:33:33.138Z,101463.44
2022-10-06T23:36:02.049Z,101466.88
2022-10-06T23:38:28.893Z,101467.00
2022-10-06T23:40:56.101Z,101461.75
2022-10-06T23:43:23.316Z,101460.97
2022-10-06T23:45:50.292Z,101459.09
2022-10-06T23:48:17.697Z,101461.88
2022-10-06T23:51:05.556Z,101459.28
2022-10-06T23:53:32.354Z,101473.34
2022-10-06T23:55:59.053Z,101468.19
2022-10-06T23:58:26.359Z,101467.97
